Hellespont Daring — V7QX9 — position and weather

sailwx.info

Track history (hours):
 
Tides and Currents Weather Stations Pressure Air Temp Water Temp Dewpoint Dewpoint Depression Visibility Wind Speed Wind Dir Waves Ship Positions

Hellespont Daring

Last reported at 2018-Feb-17 23:01 UTC. Time now 2018-Feb-17 23:16 UTC.
Position S 05°24' E 011°25'.

Length 73 m; draft 5.5 m.

Type: Other ship. MMSI: 538007803.

Date/timePositionNaut miles runAvg speedWind from/ knotsBaromVisibWave heightAir tempDewpointWater temp
2018-Feb-17 23:01S 05°24' E 011°25'0 0.3
2018-Feb-17 22:30S 05°24' E 011°26'0 0.2
2018-Feb-17 22:00S 05°24' E 011°26'0 0.1
2018-Feb-17 21:30S 05°24' E 011°26'0 0.3
2018-Feb-17 21:00S 05°24' E 011°26'0 0.5
2018-Feb-17 20:29S 05°25' E 011°25'0 0.3
2018-Feb-17 19:59S 05°24' E 011°26'0 0.3
2018-Feb-17 19:29S 05°24' E 011°26'0 0.3
2018-Feb-17 19:00S 05°24' E 011°26'0 0.3
2018-Feb-17 18:30S 05°24' E 011°26'1 2.6
2018-Feb-17 18:00S 05°24' E 011°27'2 3.5
2018-Feb-17 17:30S 05°23' E 011°29'0 0.5
2018-Feb-17 17:00S 05°23' E 011°28'0 0.6
2018-Feb-17 16:28S 05°23' E 011°28'0 0.5
2018-Feb-17 16:00S 05°23' E 011°28'0 0.5
2018-Feb-17 15:30S 05°23' E 011°28'0 0.7
2018-Feb-17 14:59S 05°22' E 011°28'3 5.8
2018-Feb-17 14:28S 05°20' E 011°29'3 5.8
2018-Feb-17 14:00S 05°17' E 011°31'1 1.0
2018-Feb-17 13:29S 05°17' E 011°30'0 0.5
2018-Feb-17 13:00S 05°17' E 011°31'0 0.9
2018-Feb-17 12:28S 05°17' E 011°31'0 0.8
2018-Feb-17 12:00S 05°18' E 011°31'0 0.7
2018-Feb-17 11:31S 05°18' E 011°31'1 1.0
2018-Feb-17 11:00S 05°18' E 011°32'1 1.1
2018-Feb-17 10:30S 05°18' E 011°32'0 0.3
2018-Feb-17 10:00S 05°18' E 011°32'1 1.2
2018-Feb-17 09:30S 05°18' E 011°32'1 1.1
2018-Feb-17 09:00S 05°19' E 011°31'1 1.0
2018-Feb-17 08:30S 05°19' E 011°31'0 0.9
2018-Feb-17 08:00S 05°19' E 011°30'0 0.8
2018-Feb-17 07:30S 05°19' E 011°30'0 0.7
2018-Feb-17 07:00S 05°19' E 011°30'0 1.0
2018-Feb-17 06:30S 05°20' E 011°29'3 5.6
2018-Feb-17 06:00S 05°22' E 011°28'2 3.3
2018-Feb-17 05:30S 05°23' E 011°26'0 0.0
2018-Feb-17 05:00S 05°23' E 011°26'0 0.0
2018-Feb-17 04:30S 05°23' E 011°26'0 0.0
2018-Feb-17 03:58S 05°23' E 011°26'0 0.1
2018-Feb-17 03:29S 05°23' E 011°26'0 0.0
2018-Feb-17 03:01S 05°23' E 011°26'0 0.4
2018-Feb-17 02:30S 05°23' E 011°27'1 1.1
2018-Feb-17 02:00S 05°24' E 011°27'2 3.2
2018-Feb-17 01:30S 05°25' E 011°28'1 2.7
2018-Feb-17 01:00S 05°26' E 011°27'1 1.5
2018-Feb-17 00:29S 05°26' E 011°27'1 2.2
2018-Feb-17 00:00S 05°25' E 011°26'1 2.1
2018-Feb-16 23:28S 05°24' E 011°26'1 3.1
2018-Feb-16 23:00S 05°23' E 011°26'1 3.0
2018-Feb-16 22:30S 05°21' E 011°25'2 4.4
2018-Feb-16 22:00S 05°19' E 011°24'0 0.8
2018-Feb-16 21:28S 05°20' E 011°24'0 0.0
2018-Feb-16 21:00S 05°20' E 011°24'0 0.0
2018-Feb-16 20:30S 05°20' E 011°24'0 0.0
2018-Feb-16 19:58S 05°20' E 011°24'0 0.2
2018-Feb-16 19:31S 05°20' E 011°24'0 0.5
2018-Feb-16 19:00S 05°20' E 011°24'1 1.4
2018-Feb-16 18:30S 05°19' E 011°24'2 4.7
2018-Feb-16 17:59S 05°17' E 011°25'3 6.4
2018-Feb-16 17:30S 05°14' E 011°26'3 6.7
2018-Feb-16 17:00S 05°11' E 011°27'4 6.7
2018-Feb-16 16:25S 05°07' E 011°28'3 6.3
2018-Feb-16 16:00S 05°05' E 011°29'3 6.5
2018-Feb-16 15:30S 05°02' E 011°30'3 6.7
2018-Feb-16 15:00S 04°59' E 011°32'14 0.5
2018-Feb-15 08:14S 04°52' E 011°45'13 6.9
2018-Feb-15 06:23S 05°01' E 011°36'3 6.9
2018-Feb-15 06:00S 05°03' E 011°35'3 6.8
2018-Feb-15 05:30S 05°06' E 011°32'4 6.8
2018-Feb-15 04:59S 05°09' E 011°30'3 6.8
2018-Feb-15 04:30S 05°11' E 011°28'4 7.1
2018-Feb-15 03:59S 05°14' E 011°26'3 7.1
2018-Feb-15 03:30S 05°17' E 011°24'1 1.6
2018-Feb-15 03:01S 05°17' E 011°23'0 0.1
2018-Feb-15 02:29S 05°17' E 011°23'0 0.0
2018-Feb-15 02:00S 05°17' E 011°23'0 0.1
2018-Feb-15 01:28S 05°17' E 011°23'0 0.1
2018-Feb-15 00:59S 05°17' E 011°23'0 0.0
2018-Feb-15 00:28S 05°17' E 011°23'0 0.0
2018-Feb-14 23:59S 05°17' E 011°23'0 0.0
2018-Feb-14 23:28S 05°17' E 011°23'0 0.0
2018-Feb-14 23:00S 05°17' E 011°23'0 0.0
2018-Feb-14 22:28S 05°17' E 011°23'0 0.0
2018-Feb-14 21:50S 05°17' E 011°23'0 0.0
2018-Feb-14 21:29S 05°17' E 011°23'0 0.0
2018-Feb-14 21:00S 05°17' E 011°23'0 0.0
2018-Feb-14 20:31S 05°17' E 011°23'0 0.0
2018-Feb-14 20:00S 05°17' E 011°23'0 0.0
2018-Feb-14 19:30S 05°17' E 011°23'0 0.0
2018-Feb-14 19:00S 05°17' E 011°23'0 0.0
2018-Feb-14 18:29S 05°17' E 011°23'0 0.0
2018-Feb-14 18:00S 05°17' E 011°23'0 0.0
2018-Feb-14 17:30S 05°17' E 011°23'0 0.0
2018-Feb-14 17:00S 05°17' E 011°23'0 0.0
2018-Feb-14 16:28S 05°17' E 011°23'0 0.0
2018-Feb-14 15:58S 05°17' E 011°23'0 0.0
2018-Feb-14 15:31S 05°17' E 011°23'0 0.0
2018-Feb-14 15:00S 05°17' E 011°23'0 0.0
2018-Feb-14 14:30S 05°17' E 011°23'0 0.1
2018-Feb-14 13:59S 05°17' E 011°23'0 0.6
2018-Feb-14 13:29S 05°17' E 011°23'1 1.2
2018-Feb-14 13:00S 05°17' E 011°23'0 0.1
2018-Feb-14 12:30S 05°17' E 011°23'0 0.6
2018-Feb-14 12:00S 05°17' E 011°23'0 0.6
2018-Feb-14 11:29S 05°17' E 011°23'3 5.6
2018-Feb-14 11:00S 05°20' E 011°24'0 0.3
2018-Feb-14 10:30S 05°20' E 011°24'0 0.0
2018-Feb-14 10:00S 05°20' E 011°24'0 0.0
2018-Feb-14 09:31S 05°20' E 011°24'0 0.1
2018-Feb-14 09:00S 05°20' E 011°24'0 0.0
2018-Feb-14 08:30S 05°20' E 011°24'0 0.0
2018-Feb-14 08:00S 05°20' E 011°24'0 0.0
2018-Feb-14 07:30S 05°20' E 011°24'0 0.0
2018-Feb-14 07:00S 05°20' E 011°24'0 0.0
2018-Feb-14 06:30S 05°20' E 011°24'0 0.0
2018-Feb-14 06:00S 05°20' E 011°24'0 0.0
2018-Feb-14 05:30S 05°20' E 011°24'0 0.0
2018-Feb-14 04:59S 05°20' E 011°24'0 0.0
2018-Feb-14 04:30S 05°20' E 011°24'0 0.0
2018-Feb-14 04:00S 05°20' E 011°24'0 0.0
2018-Feb-14 03:30S 05°20' E 011°24'0 0.0
2018-Feb-14 03:01S 05°20' E 011°24'0 0.0
2018-Feb-14 02:30S 05°20' E 011°24'0 0.0
2018-Feb-14 02:01S 05°20' E 011°24'0 0.0
2018-Feb-14 01:30S 05°20' E 011°24'0 0.0
2018-Feb-14 00:59S 05°20' E 011°24'0 0.0
2018-Feb-14 00:30S 05°20' E 011°24'0 0.0
2018-Feb-13 23:58S 05°20' E 011°24'0 0.0
2018-Feb-13 23:30S 05°20' E 011°24'0 0.0
2018-Feb-13 23:00S 05°20' E 011°24'0 0.0
2018-Feb-13 22:30S 05°20' E 011°24'0 0.0
2018-Feb-13 22:00S 05°20' E 011°24'0 0.0
2018-Feb-13 21:25S 05°20' E 011°24'0 0.0
2018-Feb-13 21:00S 05°20' E 011°24'0 0.0
2018-Feb-13 20:30S 05°20' E 011°24'0 0.0
2018-Feb-13 20:00S 05°20' E 011°24'0 0.0
2018-Feb-13 19:30S 05°20' E 011°24'0 0.0
2018-Feb-13 19:00S 05°20' E 011°24'0 0.0
2018-Feb-13 18:30S 05°20' E 011°24'0 0.1
2018-Feb-13 18:00S 05°20' E 011°24'0 0.5
2018-Feb-13 17:30S 05°19' E 011°24'1 1.0
2018-Feb-13 17:00S 05°19' E 011°24'2 3.7
2018-Feb-13 16:30S 05°17' E 011°25'3 6.3
2018-Feb-13 16:00S 05°15' E 011°27'3 6.3
2018-Feb-13 15:30S 05°13' E 011°29'3 6.2
2018-Feb-13 15:00S 05°10' E 011°31'3 5.8
2018-Feb-13 14:30S 05°08' E 011°33'0 0.7
2018-Feb-13 14:00S 05°08' E 011°33'0 0.5
2018-Feb-13 13:29S 05°09' E 011°33'0 0.5
2018-Feb-13 12:59S 05°09' E 011°33'1 1.5
2018-Feb-13 12:30S 05°10' E 011°33'1 1.5
2018-Feb-13 11:53S 05°10' E 011°33'1 1.5
2018-Feb-13 11:30S 05°11' E 011°32'1 1.7
2018-Feb-13 11:00S 05°12' E 011°32'1 1.8
2018-Feb-13 10:30S 05°12' E 011°32'1 1.8
2018-Feb-13 09:59S 05°13' E 011°31'1 1.9
2018-Feb-13 09:31S 05°14' E 011°31'1 2.0
2018-Feb-13 09:00S 05°15' E 011°30'1 1.8
2018-Feb-13 08:29S 05°16' E 011°30'1 1.5
2018-Feb-13 08:00S 05°16' E 011°29'1 1.1
2018-Feb-13 07:30S 05°17' E 011°29'1 1.5
2018-Feb-13 07:00S 05°17' E 011°28'3 6.6
2018-Feb-13 06:28S 05°17' E 011°25'2 4.2
2018-Feb-13 05:59S 05°17' E 011°23'3 5.4
2018-Feb-13 05:30S 05°19' E 011°25'0 0.6
2018-Feb-13 05:00S 05°19' E 011°25'0 0.9
2018-Feb-13 04:29S 05°19' E 011°25'0 0.9
2018-Feb-13 04:00S 05°19' E 011°25'0 0.4
2018-Feb-13 03:28S 05°19' E 011°24'0 1.0
2018-Feb-13 03:01S 05°19' E 011°25'2 4.5
2018-Feb-13 02:30S 05°17' E 011°26'3 6.6
2018-Feb-13 02:00S 05°14' E 011°28'3 6.6
2018-Feb-13 01:29S 05°11' E 011°29'3 6.5
2018-Feb-13 01:00S 05°08' E 011°31'4 6.5
2018-Feb-13 00:27S 05°05' E 011°32'6 0.1
2018-Feb-11 06:42S 05°01' E 011°37'6 8.1
2018-Feb-11 05:54S 05°06' E 011°32'3 8.2
2018-Feb-11 05:30S 05°08' E 011°30'4 8.1
2018-Feb-11 04:58S 05°12' E 011°27'4 8.3
2018-Feb-11 04:30S 05°15' E 011°25'3 5.7
2018-Feb-11 03:59S 05°17' E 011°23'0 0.0
2018-Feb-11 03:30S 05°17' E 011°23'0 0.0
2018-Feb-11 02:59S 05°17' E 011°23'0 0.0
2018-Feb-11 02:29S 05°17' E 011°23'0 0.0
2018-Feb-11 01:59S 05°17' E 011°23'0 0.0
2018-Feb-11 01:30S 05°17' E 011°23'0 0.0
2018-Feb-11 01:00S 05°17' E 011°23'0 0.0
2018-Feb-11 00:30S 05°17' E 011°23'0 0.0
2018-Feb-11 00:00S 05°17' E 011°23'0 0.1
2018-Feb-10 23:30S 05°17' E 011°23'0 0.1
2018-Feb-10 23:00S 05°17' E 011°23'0 0.0
2018-Feb-10 22:30S 05°17' E 011°23'0 0.0
2018-Feb-10 22:00S 05°17' E 011°23'0 0.1
2018-Feb-10 21:29S 05°17' E 011°23'0 0.3
2018-Feb-10 21:00S 05°17' E 011°23'0 0.6
2018-Feb-10 20:30S 05°17' E 011°23'0 0.0
2018-Feb-10 20:00S 05°17' E 011°23'0 0.0
2018-Feb-10 19:30S 05°17' E 011°23'0 0.0
2018-Feb-10 19:00S 05°17' E 011°23'0 0.0
2018-Feb-10 18:29S 05°17' E 011°23'0 0.0
2018-Feb-10 18:00S 05°17' E 011°23'0 0.0
2018-Feb-10 17:30S 05°17' E 011°23'1 1.0
2018-Feb-10 17:00S 05°17' E 011°23'0 0.7
2018-Feb-10 16:30S 05°16' E 011°23'2 3.4
2018-Feb-10 16:00S 05°18' E 011°22'0 1.0
2018-Feb-10 15:30S 05°18' E 011°22'1 1.2
2018-Feb-10 15:00S 05°18' E 011°23'1 1.8
2018-Feb-10 14:29S 05°18' E 011°24'0 0.6
2018-Feb-10 14:00S 05°18' E 011°24'0 0.3
2018-Feb-10 13:30S 05°18' E 011°24'0 0.2
2018-Feb-10 12:58S 05°18' E 011°24'0 0.8
2018-Feb-10 12:30S 05°18' E 011°23'0 0.2
2018-Feb-10 12:00S 05°17' E 011°23'0 0.0
2018-Feb-10 11:30S 05°17' E 011°23'0 0.0
2018-Feb-10 10:59S 05°17' E 011°23'0 1.0
2018-Feb-10 10:30S 05°17' E 011°23'0 0.3
2018-Feb-10 10:00S 05°17' E 011°23'0 0.3
2018-Feb-10 09:29S 05°17' E 011°23'0 0.4
2018-Feb-10 09:00S 05°17' E 011°23'1 1.6
2018-Feb-10 08:30S 05°17' E 011°24'1 1.3
2018-Feb-10 08:00S 05°18' E 011°24'2 3.3
2018-Feb-10 07:30S 05°20' E 011°24'0 0.0
2018-Feb-10 07:00S 05°20' E 011°24'0 0.0
2018-Feb-10 06:30S 05°20' E 011°24'0 0.0
2018-Feb-10 06:00S 05°20' E 011°24'0 0.0
2018-Feb-10 05:30S 05°20' E 011°24'0 0.1
2018-Feb-10 05:00S 05°20' E 011°24'0 0.0
2018-Feb-10 04:30S 05°20' E 011°24'0 0.0
2018-Feb-10 03:58S 05°20' E 011°24'0 0.0
2018-Feb-10 03:30S 05°20' E 011°24'0 0.0
2018-Feb-10 03:00S 05°20' E 011°24'0 0.0
2018-Feb-10 02:30S 05°20' E 011°24'0 0.0
2018-Feb-10 02:00S 05°20' E 011°24'0 0.0
2018-Feb-10 01:27S 05°20' E 011°24'0 0.0
2018-Feb-10 00:59S 05°20' E 011°24'0 0.0
2018-Feb-10 00:30S 05°20' E 011°24'0 0.0
2018-Feb-10 00:00S 05°20' E 011°24'0 0.2
2018-Feb-09 23:30S 05°20' E 011°24'0 0.2
2018-Feb-09 22:58S 05°20' E 011°24'0 0.0
2018-Feb-09 22:45S 05°20' E 011°24'0 0.0
2018-Feb-09 07:30S 05°20' E 011°24'3 0.3
2018-Feb-09 00:00S 05°17' E 011°23'0 0.0
2018-Feb-08 21:00S 05°17' E 011°23'0 0.0
2018-Feb-08 19:00S 05°17' E 011°23'0 0.1
2018-Feb-08 15:30S 05°17' E 011°23'1 0.2
2018-Feb-08 11:30S 05°18' E 011°22'1 0.2
2018-Feb-08 04:30S 05°17' E 011°23'4 1.4
2018-Feb-08 01:30S 05°13' E 011°24'4 7.0
2018-Feb-08 00:59S 05°10' E 011°26'4 7.0
2018-Feb-08 00:29S 05°07' E 011°28'3 7.1
2018-Feb-08 00:00S 05°04' E 011°30'4 7.1
2018-Feb-07 23:30S 05°01' E 011°32'  
Track history (hours):
 
Tides and Currents Weather Stations Pressure Air Temp Water Temp Dewpoint Dewpoint Depression Visibility Wind Speed Wind Dir Waves Ship Positions

Hellespont Daring

Last reported at 2018-Feb-17 23:01 UTC. Time now 2018-Feb-17 23:16 UTC.
Position S 05°24' E 011°25'.

Length 73 m; draft 5.5 m.

Type: Other ship. MMSI: 538007803.

Date/timePositionNaut miles runAvg speedWind from/ knotsBaromVisibWave heightAir tempDewpointWater temp
2018-Feb-17 23:01S 05°24' E 011°25'0 0.3
2018-Feb-17 22:30S 05°24' E 011°26'0 0.2
2018-Feb-17 22:00S 05°24' E 011°26'0 0.1
2018-Feb-17 21:30S 05°24' E 011°26'0 0.3
2018-Feb-17 21:00S 05°24' E 011°26'0 0.5
2018-Feb-17 20:29S 05°25' E 011°25'0 0.3
2018-Feb-17 19:59S 05°24' E 011°26'0 0.3
2018-Feb-17 19:29S 05°24' E 011°26'0 0.3
2018-Feb-17 19:00S 05°24' E 011°26'0 0.3
2018-Feb-17 18:30S 05°24' E 011°26'1 2.6
2018-Feb-17 18:00S 05°24' E 011°27'2 3.5
2018-Feb-17 17:30S 05°23' E 011°29'0 0.5
2018-Feb-17 17:00S 05°23' E 011°28'0 0.6
2018-Feb-17 16:28S 05°23' E 011°28'0 0.5
2018-Feb-17 16:00S 05°23' E 011°28'0 0.5
2018-Feb-17 15:30S 05°23' E 011°28'0 0.7
2018-Feb-17 14:59S 05°22' E 011°28'3 5.8
2018-Feb-17 14:28S 05°20' E 011°29'3 5.8
2018-Feb-17 14:00S 05°17' E 011°31'1 1.0
2018-Feb-17 13:29S 05°17' E 011°30'0 0.5
2018-Feb-17 13:00S 05°17' E 011°31'0 0.9
2018-Feb-17 12:28S 05°17' E 011°31'0 0.8
2018-Feb-17 12:00S 05°18' E 011°31'0 0.7
2018-Feb-17 11:31S 05°18' E 011°31'1 1.0
2018-Feb-17 11:00S 05°18' E 011°32'1 1.1
2018-Feb-17 10:30S 05°18' E 011°32'0 0.3
2018-Feb-17 10:00S 05°18' E 011°32'1 1.2
2018-Feb-17 09:30S 05°18' E 011°32'1 1.1
2018-Feb-17 09:00S 05°19' E 011°31'1 1.0
2018-Feb-17 08:30S 05°19' E 011°31'0 0.9
2018-Feb-17 08:00S 05°19' E 011°30'0 0.8
2018-Feb-17 07:30S 05°19' E 011°30'0 0.7
2018-Feb-17 07:00S 05°19' E 011°30'0 1.0
2018-Feb-17 06:30S 05°20' E 011°29'3 5.6
2018-Feb-17 06:00S 05°22' E 011°28'2 3.3
2018-Feb-17 05:30S 05°23' E 011°26'0 0.0
2018-Feb-17 05:00S 05°23' E 011°26'0 0.0
2018-Feb-17 04:30S 05°23' E 011°26'0 0.0
2018-Feb-17 03:58S 05°23' E 011°26'0 0.1
2018-Feb-17 03:29S 05°23' E 011°26'0 0.0
2018-Feb-17 03:01S 05°23' E 011°26'0 0.4
2018-Feb-17 02:30S 05°23' E 011°27'1 1.1
2018-Feb-17 02:00S 05°24' E 011°27'2 3.2
2018-Feb-17 01:30S 05°25' E 011°28'1 2.7
2018-Feb-17 01:00S 05°26' E 011°27'1 1.5
2018-Feb-17 00:29S 05°26' E 011°27'1 2.2
2018-Feb-17 00:00S 05°25' E 011°26'1 2.1
2018-Feb-16 23:28S 05°24' E 011°26'1 3.1
2018-Feb-16 23:00S 05°23' E 011°26'1 3.0
2018-Feb-16 22:30S 05°21' E 011°25'2 4.4
2018-Feb-16 22:00S 05°19' E 011°24'0 0.8
2018-Feb-16 21:28S 05°20' E 011°24'0 0.0
2018-Feb-16 21:00S 05°20' E 011°24'0 0.0
2018-Feb-16 20:30S 05°20' E 011°24'0 0.0
2018-Feb-16 19:58S 05°20' E 011°24'0 0.2
2018-Feb-16 19:31S 05°20' E 011°24'0 0.5
2018-Feb-16 19:00S 05°20' E 011°24'1 1.4
2018-Feb-16 18:30S 05°19' E 011°24'2 4.7
2018-Feb-16 17:59S 05°17' E 011°25'3 6.4
2018-Feb-16 17:30S 05°14' E 011°26'3 6.7
2018-Feb-16 17:00S 05°11' E 011°27'4 6.7
2018-Feb-16 16:25S 05°07' E 011°28'3 6.3
2018-Feb-16 16:00S 05°05' E 011°29'3 6.5
2018-Feb-16 15:30S 05°02' E 011°30'3 6.7
2018-Feb-16 15:00S 04°59' E 011°32'14 0.5
2018-Feb-15 08:14S 04°52' E 011°45'13 6.9
2018-Feb-15 06:23S 05°01' E 011°36'3 6.9
2018-Feb-15 06:00S 05°03' E 011°35'3 6.8
2018-Feb-15 05:30S 05°06' E 011°32'4 6.8
2018-Feb-15 04:59S 05°09' E 011°30'3 6.8
2018-Feb-15 04:30S 05°11' E 011°28'4 7.1
2018-Feb-15 03:59S 05°14' E 011°26'3 7.1
2018-Feb-15 03:30S 05°17' E 011°24'1 1.6
2018-Feb-15 03:01S 05°17' E 011°23'0 0.1
2018-Feb-15 02:29S 05°17' E 011°23'0 0.0
2018-Feb-15 02:00S 05°17' E 011°23'0 0.1
2018-Feb-15 01:28S 05°17' E 011°23'0 0.1
2018-Feb-15 00:59S 05°17' E 011°23'0 0.0
2018-Feb-15 00:28S 05°17' E 011°23'0 0.0
2018-Feb-14 23:59S 05°17' E 011°23'0 0.0
2018-Feb-14 23:28S 05°17' E 011°23'0 0.0
2018-Feb-14 23:00S 05°17' E 011°23'0 0.0
2018-Feb-14 22:28S 05°17' E 011°23'0 0.0
2018-Feb-14 21:50S 05°17' E 011°23'0 0.0
2018-Feb-14 21:29S 05°17' E 011°23'0 0.0
2018-Feb-14 21:00S 05°17' E 011°23'0 0.0
2018-Feb-14 20:31S 05°17' E 011°23'0 0.0
2018-Feb-14 20:00S 05°17' E 011°23'0 0.0
2018-Feb-14 19:30S 05°17' E 011°23'0 0.0
2018-Feb-14 19:00S 05°17' E 011°23'0 0.0
2018-Feb-14 18:29S 05°17' E 011°23'0 0.0
2018-Feb-14 18:00S 05°17' E 011°23'0 0.0
2018-Feb-14 17:30S 05°17' E 011°23'0 0.0
2018-Feb-14 17:00S 05°17' E 011°23'0 0.0
2018-Feb-14 16:28S 05°17' E 011°23'0 0.0
2018-Feb-14 15:58S 05°17' E 011°23'0 0.0
2018-Feb-14 15:31S 05°17' E 011°23'0 0.0
2018-Feb-14 15:00S 05°17' E 011°23'0 0.0
2018-Feb-14 14:30S 05°17' E 011°23'0 0.1
2018-Feb-14 13:59S 05°17' E 011°23'0 0.6
2018-Feb-14 13:29S 05°17' E 011°23'1 1.2
2018-Feb-14 13:00S 05°17' E 011°23'0 0.1
2018-Feb-14 12:30S 05°17' E 011°23'0 0.6
2018-Feb-14 12:00S 05°17' E 011°23'0 0.6
2018-Feb-14 11:29S 05°17' E 011°23'3 5.6
2018-Feb-14 11:00S 05°20' E 011°24'0 0.3
2018-Feb-14 10:30S 05°20' E 011°24'0 0.0
2018-Feb-14 10:00S 05°20' E 011°24'0 0.0
2018-Feb-14 09:31S 05°20' E 011°24'0 0.1
2018-Feb-14 09:00S 05°20' E 011°24'0 0.0
2018-Feb-14 08:30S 05°20' E 011°24'0 0.0
2018-Feb-14 08:00S 05°20' E 011°24'0 0.0
2018-Feb-14 07:30S 05°20' E 011°24'0 0.0
2018-Feb-14 07:00S 05°20' E 011°24'0 0.0
2018-Feb-14 06:30S 05°20' E 011°24'0 0.0
2018-Feb-14 06:00S 05°20' E 011°24'0 0.0
2018-Feb-14 05:30S 05°20' E 011°24'0 0.0
2018-Feb-14 04:59S 05°20' E 011°24'0 0.0
2018-Feb-14 04:30S 05°20' E 011°24'0 0.0
2018-Feb-14 04:00S 05°20' E 011°24'0 0.0
2018-Feb-14 03:30S 05°20' E 011°24'0 0.0
2018-Feb-14 03:01S 05°20' E 011°24'0 0.0
2018-Feb-14 02:30S 05°20' E 011°24'0 0.0
2018-Feb-14 02:01S 05°20' E 011°24'0 0.0
2018-Feb-14 01:30S 05°20' E 011°24'0 0.0
2018-Feb-14 00:59S 05°20' E 011°24'0 0.0
2018-Feb-14 00:30S 05°20' E 011°24'0 0.0
2018-Feb-13 23:58S 05°20' E 011°24'0 0.0
2018-Feb-13 23:30S 05°20' E 011°24'0 0.0
2018-Feb-13 23:00S 05°20' E 011°24'0 0.0
2018-Feb-13 22:30S 05°20' E 011°24'0 0.0
2018-Feb-13 22:00S 05°20' E 011°24'0 0.0
2018-Feb-13 21:25S 05°20' E 011°24'0 0.0
2018-Feb-13 21:00S 05°20' E 011°24'0 0.0
2018-Feb-13 20:30S 05°20' E 011°24'0 0.0
2018-Feb-13 20:00S 05°20' E 011°24'0 0.0
2018-Feb-13 19:30S 05°20' E 011°24'0 0.0
2018-Feb-13 19:00S 05°20' E 011°24'0 0.0
2018-Feb-13 18:30S 05°20' E 011°24'0 0.1
2018-Feb-13 18:00S 05°20' E 011°24'0 0.5
2018-Feb-13 17:30S 05°19' E 011°24'1 1.0
2018-Feb-13 17:00S 05°19' E 011°24'2 3.7
2018-Feb-13 16:30S 05°17' E 011°25'3 6.3
2018-Feb-13 16:00S 05°15' E 011°27'3 6.3
2018-Feb-13 15:30S 05°13' E 011°29'3 6.2
2018-Feb-13 15:00S 05°10' E 011°31'3 5.8
2018-Feb-13 14:30S 05°08' E 011°33'0 0.7
2018-Feb-13 14:00S 05°08' E 011°33'0 0.5
2018-Feb-13 13:29S 05°09' E 011°33'0 0.5
2018-Feb-13 12:59S 05°09' E 011°33'1 1.5
2018-Feb-13 12:30S 05°10' E 011°33'1 1.5
2018-Feb-13 11:53S 05°10' E 011°33'1 1.5
2018-Feb-13 11:30S 05°11' E 011°32'1 1.7
2018-Feb-13 11:00S 05°12' E 011°32'1 1.8
2018-Feb-13 10:30S 05°12' E 011°32'1 1.8
2018-Feb-13 09:59S 05°13' E 011°31'1 1.9
2018-Feb-13 09:31S 05°14' E 011°31'1 2.0
2018-Feb-13 09:00S 05°15' E 011°30'1 1.8
2018-Feb-13 08:29S 05°16' E 011°30'1 1.5
2018-Feb-13 08:00S 05°16' E 011°29'1 1.1
2018-Feb-13 07:30S 05°17' E 011°29'1 1.5
2018-Feb-13 07:00S 05°17' E 011°28'3 6.6
2018-Feb-13 06:28S 05°17' E 011°25'2 4.2
2018-Feb-13 05:59S 05°17' E 011°23'3 5.4
2018-Feb-13 05:30S 05°19' E 011°25'0 0.6
2018-Feb-13 05:00S 05°19' E 011°25'0 0.9
2018-Feb-13 04:29S 05°19' E 011°25'0 0.9
2018-Feb-13 04:00S 05°19' E 011°25'0 0.4
2018-Feb-13 03:28S 05°19' E 011°24'0 1.0
2018-Feb-13 03:01S 05°19' E 011°25'2 4.5
2018-Feb-13 02:30S 05°17' E 011°26'3 6.6
2018-Feb-13 02:00S 05°14' E 011°28'3 6.6
2018-Feb-13 01:29S 05°11' E 011°29'3 6.5
2018-Feb-13 01:00S 05°08' E 011°31'4 6.5
2018-Feb-13 00:27S 05°05' E 011°32'6 0.1
2018-Feb-11 06:42S 05°01' E 011°37'6 8.1
2018-Feb-11 05:54S 05°06' E 011°32'3 8.2
2018-Feb-11 05:30S 05°08' E 011°30'4 8.1
2018-Feb-11 04:58S 05°12' E 011°27'4 8.3
2018-Feb-11 04:30S 05°15' E 011°25'3 5.7
2018-Feb-11 03:59S 05°17' E 011°23'0 0.0
2018-Feb-11 03:30S 05°17' E 011°23'0 0.0
2018-Feb-11 02:59S 05°17' E 011°23'0 0.0
2018-Feb-11 02:29S 05°17' E 011°23'0 0.0
2018-Feb-11 01:59S 05°17' E 011°23'0 0.0
2018-Feb-11 01:30S 05°17' E 011°23'0 0.0
2018-Feb-11 01:00S 05°17' E 011°23'0 0.0
2018-Feb-11 00:30S 05°17' E 011°23'0 0.0
2018-Feb-11 00:00S 05°17' E 011°23'0 0.1
2018-Feb-10 23:30S 05°17' E 011°23'0 0.1
2018-Feb-10 23:00S 05°17' E 011°23'0 0.0
2018-Feb-10 22:30S 05°17' E 011°23'0 0.0
2018-Feb-10 22:00S 05°17' E 011°23'0 0.1
2018-Feb-10 21:29S 05°17' E 011°23'0 0.3
2018-Feb-10 21:00S 05°17' E 011°23'0 0.6
2018-Feb-10 20:30S 05°17' E 011°23'0 0.0
2018-Feb-10 20:00S 05°17' E 011°23'0 0.0
2018-Feb-10 19:30S 05°17' E 011°23'0 0.0
2018-Feb-10 19:00S 05°17' E 011°23'0 0.0
2018-Feb-10 18:29S 05°17' E 011°23'0 0.0
2018-Feb-10 18:00S 05°17' E 011°23'0 0.0
2018-Feb-10 17:30S 05°17' E 011°23'1 1.0
2018-Feb-10 17:00S 05°17' E 011°23'0 0.7
2018-Feb-10 16:30S 05°16' E 011°23'2 3.4
2018-Feb-10 16:00S 05°18' E 011°22'0 1.0
2018-Feb-10 15:30S 05°18' E 011°22'1 1.2
2018-Feb-10 15:00S 05°18' E 011°23'1 1.8
2018-Feb-10 14:29S 05°18' E 011°24'0 0.6
2018-Feb-10 14:00S 05°18' E 011°24'0 0.3
2018-Feb-10 13:30S 05°18' E 011°24'0 0.2
2018-Feb-10 12:58S 05°18' E 011°24'0 0.8
2018-Feb-10 12:30S 05°18' E 011°23'0 0.2
2018-Feb-10 12:00S 05°17' E 011°23'0 0.0
2018-Feb-10 11:30S 05°17' E 011°23'0 0.0
2018-Feb-10 10:59S 05°17' E 011°23'0 1.0
2018-Feb-10 10:30S 05°17' E 011°23'0 0.3
2018-Feb-10 10:00S 05°17' E 011°23'0 0.3
2018-Feb-10 09:29S 05°17' E 011°23'0 0.4
2018-Feb-10 09:00S 05°17' E 011°23'1 1.6
2018-Feb-10 08:30S 05°17' E 011°24'1 1.3
2018-Feb-10 08:00S 05°18' E 011°24'2 3.3
2018-Feb-10 07:30S 05°20' E 011°24'0 0.0
2018-Feb-10 07:00S 05°20' E 011°24'0 0.0
2018-Feb-10 06:30S 05°20' E 011°24'0 0.0
2018-Feb-10 06:00S 05°20' E 011°24'0 0.0
2018-Feb-10 05:30S 05°20' E 011°24'0 0.1
2018-Feb-10 05:00S 05°20' E 011°24'0 0.0
2018-Feb-10 04:30S 05°20' E 011°24'0 0.0
2018-Feb-10 03:58S 05°20' E 011°24'0 0.0
2018-Feb-10 03:30S 05°20' E 011°24'0 0.0
2018-Feb-10 03:00S 05°20' E 011°24'0 0.0
2018-Feb-10 02:30S 05°20' E 011°24'0 0.0
2018-Feb-10 02:00S 05°20' E 011°24'0 0.0
2018-Feb-10 01:27S 05°20' E 011°24'0 0.0
2018-Feb-10 00:59S 05°20' E 011°24'0 0.0
2018-Feb-10 00:30S 05°20' E 011°24'0 0.0
2018-Feb-10 00:00S 05°20' E 011°24'0 0.2
2018-Feb-09 23:30S 05°20' E 011°24'0 0.2
2018-Feb-09 22:58S 05°20' E 011°24'0 0.0
2018-Feb-09 22:45S 05°20' E 011°24'0 0.0
2018-Feb-09 07:30S 05°20' E 011°24'3 0.3
2018-Feb-09 00:00S 05°17' E 011°23'0 0.0
2018-Feb-08 21:00S 05°17' E 011°23'0 0.0
2018-Feb-08 19:00S 05°17' E 011°23'0 0.1
2018-Feb-08 15:30S 05°17' E 011°23'1 0.2
2018-Feb-08 11:30S 05°18' E 011°22'1 0.2
2018-Feb-08 04:30S 05°17' E 011°23'4 1.4
2018-Feb-08 01:30S 05°13' E 011°24'4 7.0
2018-Feb-08 00:59S 05°10' E 011°26'4 7.0
2018-Feb-08 00:29S 05°07' E 011°28'3 7.1
2018-Feb-08 00:00S 05°04' E 011°30'4 7.1
2018-Feb-07 23:30S 05°01' E 011°32'  

Dump ship's entire track history